Latest Weather Observations for Lombadina

IDW60801

Issued at 5:35 pm WST Thursday 24 April 2014 (issued every 30 minutes, with the page automatically refreshed every 10 minutes)

About weather observations | Map of weather stations | Latest weather observations for WA | Other Formats
Station Details ID: 503016 Name: LOMBADINA AIRSTRIP Lat: -16.52 Lon: 122.92 Height: 42.0 m
Data from the previous 72 hours. | See also: Recent months for locations in Western Australia
Date/Time
WST
Temp
°C
App
Temp
°C
Dew
Point
Rel
Hum
%
Delta-T
°C
Wind Press
QNH
hPa
Press
MSL
hPa
Rain
since 9 am
mm
Dir
 
Spd
km/h
Gust
km/h
Spd
kts
Gust
kts
24/05:30pm 28.8 32.7 21.8 66 4.7 N 4 6 2 3 1008.4 - 0.0
24/05:00pm 30.5 34.1 22.1 61 5.7 WNW 6 11 3 6 1008.1 1007.8 0.0
24/04:30pm 31.0 34.2 22.4 60 5.9 NW 9 13 5 7 1007.9 - 0.0
24/04:00pm 31.4 34.1 21.3 55 6.8 WNW 9 19 5 10 1007.6 1007.3 0.0
24/03:30pm 32.3 35.5 22.3 55 6.8 WNW 9 17 5 9 1007.5 - 0.0
24/03:00pm 32.4 35.8 22.7 56 6.7 WNW 9 17 5 9 1007.6 1007.3 0.0
24/02:30pm 33.1 36.2 21.0 49 8.1 SW 6 11 3 6 1007.6 - 0.0
24/02:00pm 34.2 34.4 14.7 31 12.1 ESE 7 11 4 6 1007.8 1007.5 0.0
24/01:30pm 34.0 33.4 13.6 29 12.4 E 9 19 5 10 1008.0 - 0.0
24/01:00pm 33.6 32.8 12.8 28 12.5 E 9 15 5 8 1008.3 1008.0 0.0
24/12:30pm 33.4 33.2 13.5 30 12.1 ESE 7 15 4 8 1008.6 - 0.0
24/12:00pm 32.1 33.5 17.8 42 9.2 SSE 7 15 4 8 1009.0 1008.7 0.0
24/11:30am 31.0 33.2 21.2 56 6.6 SE 11 19 6 10 1009.4 - 0.0
24/11:00am 30.7 33.1 22.2 60 5.8 ESE 13 20 7 11 1009.7 1009.4 0.0
24/10:30am 30.8 32.8 20.7 55 6.7 ESE 11 19 6 10 1010.0 - 0.0
24/10:00am 30.5 32.5 20.7 55 6.5 ESE 11 19 6 10 1010.3 1010.0 0.0
24/09:30am 30.1 32.9 21.6 60 5.7 ESE 9 17 5 9 1010.5 - 0.0
24/09:00am 30.0 32.2 20.5 56 6.3 ESE 9 19 5 10 1010.7 1010.4 0.0
24/08:30am 28.6 29.7 18.1 53 6.7 ESE 9 13 5 7 1010.5 - 0.0
24/08:00am 27.7 27.7 15.1 46 7.7 ESE 9 15 5 8 1010.2 1009.9 0.0
24/07:30am 26.3 27.1 16.3 54 6.2 SE 7 13 4 7 1010.0 - 0.0
24/07:00am 24.8 26.0 16.9 61 4.9 SE 6 7 3 4 1009.7 1009.4 0.0
24/06:30am 22.6 23.6 16.4 68 3.8 S 6 11 3 6 1009.5 - 0.0
24/06:00am 21.8 23.2 17.3 75 2.8 ESE 6 13 3 7 1009.5 1009.2 0.0
24/05:30am 22.0 23.7 17.2 74 3.0 SSE 4 6 2 3 1009.0 - 0.0
24/05:00am 21.8 23.4 17.8 78 2.5 SSE 6 9 3 5 1008.8 1008.5 0.0
24/04:30am 22.4 24.4 18.7 79 2.3 SSE 6 13 3 7 1008.7 - 0.0
24/04:00am 21.5 24.0 19.9 91 1.0 S 6 9 3 5 1008.7 1008.4 0.0
24/03:30am 22.1 25.1 20.9 93 0.8 S 6 7 3 4 1008.7 - 0.0
24/03:00am 22.1 25.3 21.3 95 0.5 SSW 6 7 3 4 1008.9 1008.6 0.0
24/02:30am 22.4 25.8 21.7 96 0.5 SSW 6 9 3 5 1009.0 - 0.0
24/02:00am 22.9 26.6 22.3 96 0.4 SSW 6 7 3 4 1009.2 1008.9 0.0
24/01:30am 23.2 27.0 22.4 95 0.5 SW 6 9 3 5 1009.5 - 0.0
24/01:00am 23.4 27.5 23.0 98 0.3 SW 6 9 3 5 1009.7 1009.4 0.0
24/12:30am 23.2 27.1 22.5 96 0.5 SW 6 9 3 5 1010.0 - 0.0
24/12:00am 23.0 26.9 21.9 93 0.7 SW 4 7 2 4 1010.1 1009.8 0.0
 
Date/Time
WST
Temp
°C
App
Temp
°C
Dew
Point
Rel
Hum
%
Delta-T
°C
Wind Press
QNH
hPa
Press
MSL
hPa
Rain
since 9 am
mm
Dir
 
Spd
km/h
Gust
km/h
Spd
kts
Gust
kts
23/11:30pm 22.9 26.7 21.6 92 0.9 SW 4 6 2 3 1010.4 - 0.0
23/11:00pm 23.4 26.8 21.6 90 1.2 SW 6 7 3 4 1010.5 1010.2 0.0
23/10:30pm 23.8 27.6 21.6 87 1.5 WSW 4 7 2 4 1010.7 - 0.0
23/10:00pm 23.2 26.5 21.4 90 1.2 SW 6 7 3 4 1010.8 1010.5 0.0
23/09:30pm 23.6 27.5 21.9 90 1.1 WSW 4 6 2 3 1010.7 - 0.0
23/09:00pm 24.0 28.1 21.5 86 1.7 W 2 4 1 2 1011.0 1010.7 0.0
23/08:30pm 25.3 29.1 21.6 80 2.5 W 4 7 2 4 1010.8 - 0.0
23/08:00pm 26.9 30.5 22.1 75 3.2 W 6 9 3 5 1010.7 1010.4 0.0
23/07:30pm 26.3 29.9 22.1 77 2.8 W 6 7 3 4 1010.5 - 0.0
23/07:00pm 25.4 29.0 21.3 78 2.7 W 4 6 2 3 1010.1 1009.8 0.0
23/06:30pm 25.4 28.6 20.4 74 3.3 W 4 6 2 3 1009.8 - 0.0
23/06:00pm 27.8 30.5 20.3 63 4.9 N 6 9 3 5 1009.4 1009.1 0.0
23/05:30pm 29.1 32.1 20.8 61 5.5 N 6 7 3 4 1009.1 - 0.0
23/05:00pm 31.1 34.1 20.9 54 6.8 W 6 11 3 6 1008.6 1008.3 0.0
23/04:30pm 33.5 35.6 17.2 37 10.4 SSW 2 4 1 2 1008.2 - 0.0
23/04:00pm 33.1 33.3 13.2 30 12.0 SSE 4 6 2 3 1008.0 1007.7 0.0
23/03:30pm 33.9 33.6 12.8 28 12.7 ESE 6 7 3 4 1007.8 - 0.0
23/03:00pm 33.6 32.7 11.5 26 13.0 ESE 7 11 4 6 1007.7 1007.4 0.0
23/02:30pm 33.8 33.1 13.3 29 12.4 ESE 9 13 5 7 1007.9 - 0.0
23/02:00pm 33.7 32.4 12.6 27 12.7 E 11 17 6 9 1008.2 1007.9 0.0
23/01:30pm 34.1 32.8 12.6 27 12.9 ESE 11 19 6 10 1008.5 - 0.0
23/01:00pm 33.7 34.0 15.9 34 11.2 SE 9 17 5 9 1008.8 1008.5 0.0
23/12:30pm 33.3 33.6 16.1 35 10.8 ESE 9 17 5 9 1009.3 - 0.0
23/12:00pm 32.5 33.0 16.5 38 10.1 ESE 9 17 5 9 1009.6 1009.3 0.0
23/11:30am 31.9 32.7 16.4 39 9.8 SE 7 15 4 8 1010.0 - 0.0
23/11:00am 31.5 31.9 16.3 40 9.6 ESE 9 15 5 8 1010.6 1010.3 0.0
23/10:30am 31.2 31.7 16.6 41 9.2 ESE 9 17 5 9 1011.0 - 0.0
23/10:00am 31.0 31.0 16.3 41 9.2 ESE 11 19 6 10 1011.3 1011.0 0.0
23/09:30am 30.6 30.9 15.0 38 9.6 SE 7 15 4 8 1011.6 - 0.0
23/09:00am 30.0 30.0 14.1 37 9.6 SE 7 13 4 7 1011.7 1011.4 0.0
23/08:30am 29.2 29.4 14.7 41 8.8 SSE 7 13 4 7 1011.6 - 0.0
23/08:00am 28.0 29.5 17.7 53 6.5 S 6 11 3 6 1011.5 1011.2 0.0
23/07:30am 26.9 28.9 19.2 62 5.0 SSW 7 13 4 7 1011.4 - 0.0
23/07:00am 25.1 28.2 21.5 80 2.4 SSW 7 11 4 6 1011.2 1010.9 0.0
23/06:30am 24.3 27.1 21.5 84 1.9 SSW 9 15 5 8 1011.0 - 0.0
23/06:00am 23.7 26.4 20.7 83 2.0 S 7 13 4 7 1010.8 1010.5 0.0
23/05:30am 23.4 26.4 20.9 86 1.6 S 6 11 3 6 1010.4 - 0.0
23/05:00am 23.2 26.2 20.9 87 1.5 S 6 11 3 6 1010.3 1010.0 0.0
23/04:30am 22.6 25.8 21.2 92 0.9 SSW 6 9 3 5 1010.0 - 0.0
23/04:00am 23.0 26.2 21.2 89 1.2 SSW 6 9 3 5 1010.0 1009.7 0.0
23/03:30am 23.2 26.6 22.0 93 0.8 SW 7 11 4 6 1010.1 - 0.0
23/03:00am 22.5 25.9 21.6 95 0.6 SSW 6 7 3 4 1010.2 1009.9 0.0
23/02:30am 22.7 26.1 21.6 93 0.7 SW 6 7 3 4 1010.2 - 0.0
23/02:00am 23.3 26.9 22.0 92 0.9 SW 6 7 3 4 1010.5 1010.2 0.0
23/01:30am 24.0 27.7 22.6 92 0.9 SW 7 11 4 6 1010.9 - 0.0
23/01:00am 24.5 28.9 23.4 94 0.7 SW 6 9 3 5 1011.1 1010.8 0.0
23/12:30am 25.0 29.3 23.6 92 1.0 SW 7 13 4 7 1011.6 - 0.0
23/12:00am 24.0 28.2 22.5 91 1.0 SW 4 7 2 4 1011.9 1011.6 0.0
 
Date/Time
WST
Temp
°C
App
Temp
°C
Dew
Point
Rel
Hum
%
Delta-T
°C
Wind Press
QNH
hPa
Press
MSL
hPa
Rain
since 9 am
mm
Dir
 
Spd
km/h
Gust
km/h
Spd
kts
Gust
kts
22/11:30pm 23.8 27.4 22.0 90 1.2 WSW 6 7 3 4 1012.1 - 0.0
22/11:00pm 24.0 27.7 21.5 86 1.7 WSW 4 6 2 3 1012.2 1011.9 0.0
22/10:30pm 24.6 28.6 22.0 85 1.7 W 4 6 2 3 1012.1 - 0.0
22/10:00pm 25.0 29.3 22.6 86 1.6 W 4 6 2 3 1012.1 1011.8 0.0
22/09:30pm 24.5 28.6 22.3 87 1.5 WSW 4 7 2 4 1012.0 - 0.0
22/09:00pm 24.7 29.1 22.8 89 1.3 WSW 4 6 2 3 1012.1 1011.8 0.0
22/08:30pm 25.0 29.2 22.5 86 1.7 WSW 4 7 2 4 1011.8 - 0.0
22/08:00pm 26.0 30.2 22.5 81 2.4 W 4 6 2 3 1011.6 1011.3 0.0
22/07:30pm 27.4 31.3 23.0 77 3.0 W 7 11 4 6 1011.3 - 0.0
22/07:00pm 27.4 31.3 22.6 75 3.3 W 6 11 3 6 1010.8 1010.5 0.0
22/06:30pm 27.4 31.0 22.1 73 3.6 W 6 9 3 5 1010.5 - 0.0
22/06:00pm 28.0 32.1 22.9 74 3.5 WNW 6 9 3 5 1010.4 1010.1 0.0
22/05:30pm 29.2 33.3 23.0 69 4.2 NW 6 11 3 6 1010.1 - 0.0
22/05:00pm 30.3 34.0 23.2 65 4.9 NW 9 15 5 8 1009.8 1009.5 0.0
22/04:30pm 31.3 34.1 21.5 56 6.6 NW 9 15 5 8 1009.6 - 0.0
22/04:00pm 32.4 34.8 20.9 50 7.7 NW 9 13 5 7 1009.2 1008.9 0.0
22/03:30pm 33.3 36.4 19.6 44 9.1 NNW 2 7 1 4 1009.1 - 0.0
22/03:00pm 33.1 35.5 20.0 46 8.7 NW 7 13 4 7 1009.1 1008.8 0.0
22/02:30pm 33.3 35.1 18.7 42 9.5 WNW 7 15 4 8 1009.2 - 0.0
22/02:00pm 33.9 36.4 19.9 43 9.3 NE 6 13 3 7 1009.5 1009.2 0.0
22/01:30pm 32.9 36.2 22.6 54 7.1 E 9 13 5 7 1009.8 - 0.0
22/01:00pm 32.5 35.6 22.9 57 6.6 E 11 17 6 9 1010.2 1009.9 0.0
22/12:30pm 32.0 34.9 22.5 57 6.5 E 11 19 6 10 1010.6 - 0.0
22/12:00pm 32.8 35.2 20.0 47 8.5 SE 7 15 4 8 1011.0 1010.7 0.0
22/11:30am 32.1 32.8 17.9 42 9.1 ESE 11 20 6 11 1011.3 - 0.0
22/11:00am 32.6 33.5 17.5 40 9.7 SE 9 19 5 10 1011.9 1011.6 0.0
22/10:30am 32.5 34.5 19.2 45 8.7 SSE 7 15 4 8 1012.3 - 0.0
22/10:00am 31.7 33.6 19.7 49 7.9 SE 9 17 5 9 1012.6 1012.3 0.0
22/09:30am 31.0 32.5 19.0 48 7.8 SE 9 15 5 8 1012.9 - 0.0
22/09:00am 30.5 31.9 18.6 49 7.7 ESE 9 17 5 9 1012.9 1012.6 0.0
22/08:30am 29.9 32.1 19.2 52 7.0 S 6 13 3 7 1012.8 - 0.0
22/08:00am 28.3 30.9 20.1 61 5.4 SSW 6 11 3 6 1012.5 1012.2 0.0
22/07:30am 27.1 30.1 20.9 69 4.1 SW 6 11 3 6 1012.3 - 0.0
22/07:00am 25.5 29.3 22.4 83 2.1 SSW 6 9 3 5 1012.1 1011.8 0.0
22/06:30am 23.9 28.1 22.5 92 0.9 SSW 4 7 2 4 1011.9 - 0.0
22/06:00am 23.4 27.1 22.2 93 0.8 SSW 6 9 3 5 1011.7 1011.4 0.0
22/05:30am 23.6 27.3 22.2 92 0.9 SSW 6 9 3 5 1011.6 - 0.0
22/05:00am 23.5 27.5 22.1 92 0.9 SSW 4 7 2 4 1011.4 1011.1 0.0
22/04:30am 23.8 27.7 22.5 92 0.9 SSW 6 11 3 6 1011.2 - 0.0
22/04:00am 24.0 27.9 22.6 92 0.9 SSW 6 9 3 5 1011.1 1010.8 0.0
22/03:30am 24.2 28.1 22.9 92 0.9 SW 7 11 4 6 1010.9 - 0.0
22/03:00am 24.5 28.5 23.1 92 0.9 SW 7 11 4 6 1011.0 1010.7 0.0
22/02:30am 24.2 28.3 22.9 92 0.9 SW 6 9 3 5 1011.2 - 0.0
22/02:00am 24.2 28.2 22.8 92 0.9 SW 6 9 3 5 1011.3 1011.0 0.0
22/01:30am 24.2 28.2 22.7 91 1.0 SW 6 11 3 6 1011.7 - 0.0
22/01:00am 24.5 28.5 23.1 92 0.9 SW 7 11 4 6 1012.0 1011.7 0.0
22/12:30am 24.5 28.8 23.3 93 0.8 SW 6 9 3 5 1012.2 - 0.0
22/12:00am 24.4 28.3 22.5 89 1.3 SW 6 9 3 5 1012.5 1012.2 0.0
 
Date/Time
WST
Temp
°C
App
Temp
°C
Dew
Point
Rel
Hum
%
Delta-T
°C
Wind Press
QNH
hPa
Press
MSL
hPa
Rain
since 9 am
mm
Dir
 
Spd
km/h
Gust
km/h
Spd
kts
Gust
kts
21/11:30pm 24.8 28.7 22.5 87 1.5 SW 6 9 3 5 1012.8 - 0.0
21/11:00pm 24.3 28.0 22.2 88 1.4 SW 6 7 3 4 1012.8 1012.5 0.0
21/10:30pm 23.6 27.5 21.9 90 1.1 SW 4 6 2 3 1013.0 - 0.0
21/10:00pm 23.9 27.8 21.9 88 1.3 SW 4 6 2 3 1013.0 1012.7 0.0
21/09:30pm 24.0 28.0 22.1 89 1.3 SW 4 6 2 3 1012.9 - 0.0
21/09:00pm 24.0 28.0 22.0 88 1.3 SW 4 6 2 3 1012.9 1012.6 0.0
21/08:30pm 24.2 28.2 22.0 87 1.5 SW 4 7 2 4 1012.7 - 0.0
21/08:00pm 24.7 29.2 22.3 86 1.6 SW 2 4 1 2 1012.5 1012.2 0.0
21/07:30pm 24.7 28.9 22.4 87 1.5 SW 4 6 2 3 1012.2 - 0.0
21/07:00pm 25.3 29.5 22.4 84 2.0 W 4 7 2 4 1011.7 1011.4 0.0
21/06:30pm 26.0 30.1 22.3 80 2.5 WNW 4 6 2 3 1011.4 - 0.0
21/06:00pm 27.0 31.5 22.3 75 3.2 WNW 2 4 1 2 1011.1 1010.8 0.0

Other Formats:

Comma delimited format used in spreadsheet applications
http://www.bom.gov.au/fwo/IDW60801/IDW60801.99206.axf

JavaScript Object Notation format (JSON) in row-major order
http://www.bom.gov.au/fwo/IDW60801/IDW60801.99206.json